sensor_id;sensor_type;location;lat;lon;timestamp;pressure;altitude;pressure_sealevel;temperature;humidity
27334;BME280;14817;57.104;-2.094;2023-08-01T00:01:36;97004.31;;;13.24;100.00
27334;BME280;14817;57.104;-2.094;2023-08-01T00:04:03;96991.41;;;13.21;100.00
27334;BME280;14817;57.104;-2.094;2023-08-01T00:06:30;96984.72;;;13.24;100.00
27334;BME280;14817;57.104;-2.094;2023-08-01T00:08:56;96979.34;;;13.24;100.00
27334;BME280;14817;57.104;-2.094;2023-08-01T00:11:23;96971.53;;;13.22;100.00
27334;BME280;14817;57.104;-2.094;2023-08-01T00:13:50;96964.38;;;13.33;100.00
27334;BME280;14817;57.104;-2.094;2023-08-01T00:16:17;96962.41;;;13.23;100.00
27334;BME280;14817;57.104;-2.094;2023-08-01T00:18:43;96949.22;;;13.22;100.00
27334;BME280;14817;57.104;-2.094;2023-08-01T00:21:10;96948.97;;;13.23;100.00
27334;BME280;14817;57.104;-2.094;2023-08-01T00:23:38;96930.66;;;13.20;100.00
27334;BME280;14817;57.104;-2.094;2023-08-01T00:26:04;96938.13;;;13.08;100.00
27334;BME280;14817;57.104;-2.094;2023-08-01T00:28:31;96930.41;;;13.17;100.00
27334;BME280;14817;57.104;-2.094;2023-08-01T00:31:02;96906.47;;;13.15;100.00
27334;BME280;14817;57.104;-2.094;2023-08-01T00:33:29;96904.66;;;13.26;100.00
27334;BME280;14817;57.104;-2.094;2023-08-01T00:35:56;96921.72;;;13.42;100.00
27334;BME280;14817;57.104;-2.094;2023-08-01T00:38:22;96928.19;;;13.46;100.00
27334;BME280;14817;57.104;-2.094;2023-08-01T00:40:49;96922.56;;;13.53;100.00
27334;BME280;14817;57.104;-2.094;2023-08-01T00:43:16;96930.38;;;13.54;100.00
27334;BME280;14817;57.104;-2.094;2023-08-01T00:45:43;96929.06;;;13.57;100.00
27334;BME280;14817;57.104;-2.094;2023-08-01T00:48:11;96922.63;;;13.58;100.00
27334;BME280;14817;57.104;-2.094;2023-08-01T00:50:38;96917.56;;;13.66;100.00
27334;BME280;14817;57.104;-2.094;2023-08-01T00:53:06;96904.09;;;13.61;100.00
27334;BME280;14817;57.104;-2.094;2023-08-01T00:55:32;96905.47;;;13.69;100.00
27334;BME280;14817;57.104;-2.094;2023-08-01T00:58:00;96901.41;;;13.66;100.00
27334;BME280;14817;57.104;-2.094;2023-08-01T01:00:27;96920.25;;;13.72;100.00
27334;BME280;14817;57.104;-2.094;2023-08-01T01:02:54;96918.91;;;13.69;100.00
27334;BME280;14817;57.104;-2.094;2023-08-01T01:05:21;96926.47;;;13.72;100.00
27334;BME280;14817;57.104;-2.094;2023-08-01T01:07:49;96930.22;;;13.71;100.00
27334;BME280;14817;57.104;-2.094;2023-08-01T01:10:16;96936.97;;;13.79;100.00
27334;BME280;14817;57.104;-2.094;2023-08-01T01:12:43;96935.09;;;13.79;100.00
27334;BME280;14817;57.104;-2.094;2023-08-01T01:15:10;96942.63;;;13.82;100.00
27334;BME280;14817;57.104;-2.094;2023-08-01T01:17:36;96939.13;;;13.82;100.00
27334;BME280;14817;57.104;-2.094;2023-08-01T01:20:03;96934.00;;;13.80;100.00
27334;BME280;14817;57.104;-2.094;2023-08-01T01:22:30;96925.69;;;13.77;100.00
27334;BME280;14817;57.104;-2.094;2023-08-01T01:24:57;96934.25;;;13.74;100.00
27334;BME280;14817;57.104;-2.094;2023-08-01T01:27:25;96932.94;;;13.76;100.00
27334;BME280;14817;57.104;-2.094;2023-08-01T01:29:52;96919.13;;;13.57;100.00
27334;BME280;14817;57.104;-2.094;2023-08-01T01:32:19;96904.84;;;13.52;100.00
27334;BME280;14817;57.104;-2.094;2023-08-01T01:34:46;96891.88;;;13.38;100.00
27334;BME280;14817;57.104;-2.094;2023-08-01T01:37:13;96859.63;;;13.38;100.00
27334;BME280;14817;57.104;-2.094;2023-08-01T01:39:40;96874.97;;;13.43;100.00
27334;BME280;14817;57.104;-2.094;2023-08-01T01:42:07;96881.44;;;13.52;100.00
27334;BME280;14817;57.104;-2.094;2023-08-01T01:44:34;96896.00;;;13.56;100.00
27334;BME280;14817;57.104;-2.094;2023-08-01T01:47:00;96905.69;;;13.62;100.00
27334;BME280;14817;57.104;-2.094;2023-08-01T01:49:27;96893.09;;;13.68;100.00
27334;BME280;14817;57.104;-2.094;2023-08-01T01:51:56;96893.91;;;13.68;100.00
27334;BME280;14817;57.104;-2.094;2023-08-01T01:54:24;96892.28;;;13.67;100.00
27334;BME280;14817;57.104;-2.094;2023-08-01T01:56:51;96891.22;;;13.68;100.00
27334;BME280;14817;57.104;-2.094;2023-08-01T01:59:17;96900.34;;;13.67;100.00
27334;BME280;14817;57.104;-2.094;2023-08-01T02:01:44;96903.06;;;13.73;100.00
27334;BME280;14817;57.104;-2.094;2023-08-01T02:04:11;96896.91;;;13.77;100.00
27334;BME280;14817;57.104;-2.094;2023-08-01T02:06:38;96885.34;;;13.82;100.00
27334;BME280;14817;57.104;-2.094;2023-08-01T02:09:05;96887.78;;;13.88;100.00
27334;BME280;14817;57.104;-2.094;2023-08-01T02:11:32;96875.13;;;13.84;100.00
27334;BME280;14817;57.104;-2.094;2023-08-01T02:13:59;96869.50;;;13.85;100.00
27334;BME280;14817;57.104;-2.094;2023-08-01T02:16:28;96875.13;;;13.84;100.00
27334;BME280;14817;57.104;-2.094;2023-08-01T02:18:55;96869.22;;;13.82;100.00
27334;BME280;14817;57.104;-2.094;2023-08-01T02:21:22;96870.56;;;13.84;100.00
27334;BME280;14817;57.104;-2.094;2023-08-01T02:23:49;96877.81;;;13.79;100.00
27334;BME280;14817;57.104;-2.094;2023-08-01T02:26:16;96878.38;;;13.81;100.00
27334;BME280;14817;57.104;-2.094;2023-08-01T02:28:43;96865.72;;;13.76;100.00
27334;BME280;14817;57.104;-2.094;2023-08-01T02:31:09;96869.22;;;13.82;100.00
27334;BME280;14817;57.104;-2.094;2023-08-01T02:33:36;96865.97;;;13.80;100.00
27334;BME280;14817;57.104;-2.094;2023-08-01T02:36:03;96862.22;;;13.81;100.00
27334;BME280;14817;57.104;-2.094;2023-08-01T02:38:30;96871.41;;;13.85;100.00
27334;BME280;14817;57.104;-2.094;2023-08-01T02:40:57;96863.81;;;13.77;100.00
27334;BME280;14817;57.104;-2.094;2023-08-01T02:43:24;96863.28;;;13.75;100.00
27334;BME280;14817;57.104;-2.094;2023-08-01T02:45:51;96857.34;;;13.73;100.00
27334;BME280;14817;57.104;-2.094;2023-08-01T02:48:18;96849.28;;;13.73;100.00
27334;BME280;14817;57.104;-2.094;2023-08-01T02:50:45;96865.16;;;13.74;100.00
27334;BME280;14817;57.104;-2.094;2023-08-01T02:53:12;96858.41;;;13.72;100.00
27334;BME280;14817;57.104;-2.094;2023-08-01T02:55:39;96855.16;;;13.64;100.00
27334;BME280;14817;57.104;-2.094;2023-08-01T02:58:06;96854.06;;;13.65;100.00
27334;BME280;14817;57.104;-2.094;2023-08-01T03:00:33;96859.47;;;13.65;100.00
27334;BME280;14817;57.104;-2.094;2023-08-01T03:02:59;96859.19;;;13.67;100.00
27334;BME280;14817;57.104;-2.094;2023-08-01T03:05:26;96867.00;;;13.68;100.00
27334;BME280;14817;57.104;-2.094;2023-08-01T03:07:53;96869.44;;;13.70;100.00
27334;BME280;14817;57.104;-2.094;2023-08-01T03:10:20;96868.13;;;13.73;100.00
27334;BME280;14817;57.104;-2.094;2023-08-01T03:13:02;96866.47;;;13.66;100.00
27334;BME280;14817;57.104;-2.094;2023-08-01T03:15:29;96858.41;;;13.72;100.00
27334;BME280;14817;57.104;-2.094;2023-08-01T03:17:55;96871.59;;;13.68;100.00
27334;BME280;14817;57.104;-2.094;2023-08-01T03:20:22;96877.22;;;13.61;100.00
27334;BME280;14817;57.104;-2.094;2023-08-01T03:22:49;96881.25;;;13.64;100.00
27334;BME280;14817;57.104;-2.094;2023-08-01T03:25:15;96880.44;;;13.63;100.00
27334;BME280;14817;57.104;-2.094;2023-08-01T03:27:42;96872.41;;;13.68;100.00
27334;BME280;14817;57.104;-2.094;2023-08-01T03:30:09;96875.06;;;13.63;100.00
27334;BME280;14817;57.104;-2.094;2023-08-01T03:32:36;96870.75;;;13.57;100.00
27334;BME280;14817;57.104;-2.094;2023-08-01T03:35:06;96882.59;;;13.61;100.00
27334;BME280;14817;57.104;-2.094;2023-08-01T03:37:33;96878.28;;;13.65;100.00
27334;BME280;14817;57.104;-2.094;2023-08-01T03:40:00;96867.75;;;13.59;100.00
27334;BME280;14817;57.104;-2.094;2023-08-01T03:42:28;96883.13;;;13.63;100.00
27334;BME280;14817;57.104;-2.094;2023-08-01T03:44:54;96878.28;;;13.65;100.00
27334;BME280;14817;57.104;-2.094;2023-08-01T03:47:21;96874.53;;;13.66;100.00
27334;BME280;14817;57.104;-2.094;2023-08-01T03:49:48;96872.63;;;13.62;100.00
27334;BME280;14817;57.104;-2.094;2023-08-01T03:52:14;96884.19;;;13.62;100.00
27334;BME280;14817;57.104;-2.094;2023-08-01T03:54:41;96892.25;;;13.57;100.00
27334;BME280;14817;57.104;-2.094;2023-08-01T03:57:08;96899.53;;;13.67;100.00
27334;BME280;14817;57.104;-2.094;2023-08-01T03:59:36;96877.22;;;13.66;100.00
27334;BME280;14817;57.104;-2.094;2023-08-01T04:02:03;96884.75;;;13.64;100.00
27334;BME280;14817;57.104;-2.094;2023-08-01T04:04:30;96875.56;;;13.60;100.00
27334;BME280;14817;57.104;-2.094;2023-08-01T04:06:58;96886.09;;;13.67;100.00
27334;BME280;14817;57.104;-2.094;2023-08-01T04:09:24;96865.38;;;13.62;100.00
27334;BME280;14817;57.104;-2.094;2023-08-01T04:11:51;96865.94;;;13.69;100.00
27334;BME280;14817;57.104;-2.094;2023-08-01T04:14:18;96859.50;;;13.71;100.00
27334;BME280;14817;57.104;-2.094;2023-08-01T04:16:44;96857.34;;;13.73;100.00
27334;BME280;14817;57.104;-2.094;2023-08-01T04:19:11;96853.56;;;13.74;100.00
27334;BME280;14817;57.104;-2.094;2023-08-01T04:21:38;96861.94;;;13.72;100.00
27334;BME280;14817;57.104;-2.094;2023-08-01T04:24:05;96850.38;;;13.77;100.00
27334;BME280;14817;57.104;-2.094;2023-08-01T04:26:31;96845.78;;;13.72;100.00
27334;BME280;14817;57.104;-2.094;2023-08-01T04:28:58;96859.50;;;13.76;100.00
27334;BME280;14817;57.104;-2.094;2023-08-01T04:31:25;96854.91;;;13.71;100.00
27334;BME280;14817;57.104;-2.094;2023-08-01T04:33:53;96861.09;;;13.72;100.00
27334;BME280;14817;57.104;-2.094;2023-08-01T04:36:19;96853.56;;;13.74;100.00
27334;BME280;14817;57.104;-2.094;2023-08-01T04:38:46;96853.56;;;13.74;100.00
27334;BME280;14817;57.104;-2.094;2023-08-01T04:41:13;96850.34;;;13.72;100.00
27334;BME280;14817;57.104;-2.094;2023-08-01T04:43:39;96841.22;;;13.73;100.00
27334;BME280;14817;57.104;-2.094;2023-08-01T04:46:06;96851.19;;;13.72;100.00
27334;BME280;14817;57.104;-2.094;2023-08-01T04:48:33;96842.00;;;13.68;100.00
27334;BME280;14817;57.104;-2.094;2023-08-01T04:51:00;96833.16;;;13.73;100.00
27334;BME280;14817;57.104;-2.094;2023-08-01T04:53:26;96822.94;;;13.75;100.00
27334;BME280;14817;57.104;-2.094;2023-08-01T04:55:53;96800.88;;;13.78;100.00
27334;BME280;14817;57.104;-2.094;2023-08-01T04:58:20;96807.06;;;13.78;100.00
27334;BME280;14817;57.104;-2.094;2023-08-01T05:00:47;96786.38;;;13.79;100.00
27334;BME280;14817;57.104;-2.094;2023-08-01T05:03:14;96777.19;;;13.69;100.00
27334;BME280;14817;57.104;-2.094;2023-08-01T05:05:41;96763.50;;;13.66;100.00
27334;BME280;14817;57.104;-2.094;2023-08-01T05:08:07;96747.41;;;13.76;100.00
27334;BME280;14817;57.104;-2.094;2023-08-01T05:10:34;96731.78;;;13.78;100.00
27334;BME280;14817;57.104;-2.094;2023-08-01T05:13:01;96705.97;;;13.77;100.00
27334;BME280;14817;57.104;-2.094;2023-08-01T05:15:29;96691.44;;;13.78;100.00
27334;BME280;14817;57.104;-2.094;2023-08-01T05:17:57;96686.34;;;13.77;100.00
27334;BME280;14817;57.104;-2.094;2023-08-01T05:20:24;96675.59;;;13.87;100.00
27334;BME280;14817;57.104;-2.094;2023-08-01T05:22:52;96654.06;;;13.92;100.00
27334;BME280;14817;57.104;-2.094;2023-08-01T05:25:21;96644.91;;;14.03;100.00
27334;BME280;14817;57.104;-2.094;2023-08-01T05:27:48;96617.22;;;13.98;100.00
27334;BME280;14817;57.104;-2.094;2023-08-01T05:30:14;96601.34;;;14.01;100.00
27334;BME280;14817;57.104;-2.094;2023-08-01T05:32:41;96579.00;;;14.01;100.00
27334;BME280;14817;57.104;-2.094;2023-08-01T05:35:10;96581.44;;;14.02;100.00
27334;BME280;14817;57.104;-2.094;2023-08-01T05:37:36;96553.47;;;13.93;100.00
27334;BME280;14817;57.104;-2.094;2023-08-01T05:40:04;96538.38;;;14.07;100.00
27334;BME280;14817;57.104;-2.094;2023-08-01T05:42:31;96508.19;;;14.21;100.00
27334;BME280;14817;57.104;-2.094;2023-08-01T05:44:57;96475.63;;;14.27;100.00
27334;BME280;14817;57.104;-2.094;2023-08-01T05:47:24;96456.44;;;14.39;100.00
27334;BME280;14817;57.104;-2.094;2023-08-01T05:49:51;96413.38;;;14.39;100.00
27334;BME280;14817;57.104;-2.094;2023-08-01T05:52:18;96377.88;;;14.37;100.00
27334;BME280;14817;57.104;-2.094;2023-08-01T05:54:44;96352.56;;;14.38;100.00
27334;BME280;14817;57.104;-2.094;2023-08-01T05:57:13;96313.78;;;14.39;100.00
27334;BME280;14817;57.104;-2.094;2023-08-01T05:59:40;96297.13;;;14.37;100.00
27334;BME280;14817;57.104;-2.094;2023-08-01T06:02:07;96240.97;;;14.25;100.00
27334;BME280;14817;57.104;-2.094;2023-08-01T06:04:34;96217.50;;;14.31;100.00
27334;BME280;14817;57.104;-2.094;2023-08-01T06:07:01;96176.94;;;14.22;100.00
27334;BME280;14817;57.104;-2.094;2023-08-01T06:09:28;96133.53;;;14.34;100.00
27334;BME280;14817;57.104;-2.094;2023-08-01T06:11:55;96084.59;;;14.27;100.00
27334;BME280;14817;57.104;-2.094;2023-08-01T06:14:21;96062.00;;;14.28;100.00
27334;BME280;14817;57.104;-2.094;2023-08-01T06:16:48;96020.16;;;14.41;100.00
27334;BME280;14817;57.104;-2.094;2023-08-01T06:19:15;95982.09;;;14.47;100.00
27334;BME280;14817;57.104;-2.094;2023-08-01T06:21:42;95947.81;;;14.58;100.00
27334;BME280;14817;57.104;-2.094;2023-08-01T06:24:09;95904.97;;;14.62;100.00
27334;BME280;14817;57.104;-2.094;2023-08-01T06:26:36;95869.34;;;14.46;100.00
27334;BME280;14817;57.104;-2.094;2023-08-01T06:29:04;95821.34;;;14.53;100.00
27334;BME280;14817;57.104;-2.094;2023-08-01T06:31:31;95797.78;;;14.64;100.00
27334;BME280;14817;57.104;-2.094;2023-08-01T06:33:58;95750.44;;;14.77;100.00
27334;BME280;14817;57.104;-2.094;2023-08-01T06:36:25;95702.75;;;14.77;100.00
27334;BME280;14817;57.104;-2.094;2023-08-01T06:38:51;95619.78;;;14.79;100.00
27334;BME280;14817;57.104;-2.094;2023-08-01T06:41:18;95562.81;;;14.86;100.00
27334;BME280;14817;57.104;-2.094;2023-08-01T06:43:45;95522.34;;;14.77;100.00
27334;BME280;14817;57.104;-2.094;2023-08-01T06:46:11;95500.19;;;14.80;100.00
27334;BME280;14817;57.104;-2.094;2023-08-01T06:48:39;95500.69;;;14.82;100.00
27334;BME280;14817;57.104;-2.094;2023-08-01T06:51:05;95475.16;;;14.80;100.00
27334;BME280;14817;57.104;-2.094;2023-08-01T06:53:32;95497.91;;;14.74;100.00
27334;BME280;14817;57.104;-2.094;2023-08-01T06:55:59;95476.78;;;14.81;100.00
27334;BME280;14817;57.104;-2.094;2023-08-01T06:58:25;95469.97;;;14.83;100.00
27334;BME280;14817;57.104;-2.094;2023-08-01T07:00:52;95466.66;;;14.86;100.00
27334;BME280;14817;57.104;-2.094;2023-08-01T07:03:19;95463.59;;;14.79;100.00
27334;BME280;14817;57.104;-2.094;2023-08-01T07:05:46;95456.50;;;14.83;100.00
27334;BME280;14817;57.104;-2.094;2023-08-01T07:08:12;95452.91;;;14.88;100.00
27334;BME280;14817;57.104;-2.094;2023-08-01T07:10:39;95456.50;;;15.06;100.00
27334;BME280;14817;57.104;-2.094;2023-08-01T07:13:06;95460.25;;;15.19;100.00
27334;BME280;14817;57.104;-2.094;2023-08-01T07:15:32;95470.28;;;15.27;100.00
27334;BME280;14817;57.104;-2.094;2023-08-01T07:18:02;95521.06;;;15.34;100.00
27334;BME280;14817;57.104;-2.094;2023-08-01T07:20:29;95547.44;;;15.23;100.00
27334;BME280;14817;57.104;-2.094;2023-08-01T07:22:56;95527.81;;;15.45;100.00
27334;BME280;14817;57.104;-2.094;2023-08-01T07:25:23;95485.28;;;15.64;100.00
27334;BME280;14817;57.104;-2.094;2023-08-01T07:27:49;95492.13;;;15.70;100.00
27334;BME280;14817;57.104;-2.094;2023-08-01T07:30:16;95507.50;;;15.70;100.00
27334;BME280;14817;57.104;-2.094;2023-08-01T07:32:43;95509.75;;;15.99;100.00
27334;BME280;14817;57.104;-2.094;2023-08-01T07:35:10;95532.94;;;16.00;100.00
27334;BME280;14817;57.104;-2.094;2023-08-01T07:37:37;95515.69;;;16.76;100.00
27334;BME280;14817;57.104;-2.094;2023-08-01T07:40:05;95514.16;;;17.19;100.00
27334;BME280;14817;57.104;-2.094;2023-08-01T07:42:32;95531.44;;;17.87;100.00
27334;BME280;14817;57.104;-2.094;2023-08-01T07:45:01;95593.03;;;17.99;100.00
27334;BME280;14817;57.104;-2.094;2023-08-01T07:47:27;95627.06;;;19.03;100.00
27334;BME280;14817;57.104;-2.094;2023-08-01T07:49:54;95883.84;;;19.03;100.00
27334;BME280;14817;57.104;-2.094;2023-08-01T07:52:21;96023.56;;;19.09;100.00
27334;BME280;14817;57.104;-2.094;2023-08-01T07:54:47;96123.78;;;19.66;100.00
27334;BME280;14817;57.104;-2.094;2023-08-01T07:57:14;96243.19;;;19.49;100.00
27334;BME280;14817;57.104;-2.094;2023-08-01T07:59:42;96278.78;;;19.56;100.00
27334;BME280;14817;57.104;-2.094;2023-08-01T08:02:08;96293.44;;;19.95;100.00
27334;BME280;14817;57.104;-2.094;2023-08-01T08:04:35;96299.69;;;20.48;100.00
27334;BME280;14817;57.104;-2.094;2023-08-01T08:07:02;96322.56;;;20.38;100.00
27334;BME280;14817;57.104;-2.094;2023-08-01T08:09:28;96350.44;;;19.95;100.00
27334;BME280;14817;57.104;-2.094;2023-08-01T08:11:55;96374.34;;;20.33;100.00
27334;BME280;14817;57.104;-2.094;2023-08-01T08:14:24;96451.28;;;19.40;100.00
27334;BME280;14817;57.104;-2.094;2023-08-01T08:16:50;96420.78;;;20.05;100.00
27334;BME280;14817;57.104;-2.094;2023-08-01T08:19:17;96441.69;;;19.96;100.00
27334;BME280;14817;57.104;-2.094;2023-08-01T08:21:44;96444.88;;;19.98;100.00
27334;BME280;14817;57.104;-2.094;2023-08-01T08:24:10;96492.72;;;19.76;100.00
27334;BME280;14817;57.104;-2.094;2023-08-01T08:26:37;96569.34;;;19.01;100.00
27334;BME280;14817;57.104;-2.094;2023-08-01T08:29:06;96526.88;;;19.77;100.00
27334;BME280;14817;57.104;-2.094;2023-08-01T08:31:33;96530.91;;;19.80;100.00
27334;BME280;14817;57.104;-2.094;2023-08-01T08:34:00;96549.41;;;19.78;100.00
27334;BME280;14817;57.104;-2.094;2023-08-01T08:36:27;96526.22;;;20.43;100.00
27334;BME280;14817;57.104;-2.094;2023-08-01T08:38:53;96177.00;;;20.84;100.00
27334;BME280;14817;57.104;-2.094;2023-08-01T08:41:21;96289.28;;;20.76;100.00
27334;BME280;14817;57.104;-2.094;2023-08-01T08:43:50;96358.50;;;20.26;100.00
27334;BME280;14817;57.104;-2.094;2023-08-01T08:46:20;96334.41;;;20.42;100.00
27334;BME280;14817;57.104;-2.094;2023-08-01T08:48:48;96349.59;;;20.69;100.00
27334;BME280;14817;57.104;-2.094;2023-08-01T08:51:15;96305.28;;;20.86;100.00
27334;BME280;14817;57.104;-2.094;2023-08-01T08:53:42;96469.25;;;21.13;100.00
27334;BME280;14817;57.104;-2.094;2023-08-01T08:56:11;96529.91;;;21.31;100.00
27334;BME280;14817;57.104;-2.094;2023-08-01T08:58:38;95574.91;;;21.22;100.00
27334;BME280;14817;57.104;-2.094;2023-08-01T09:01:05;98261.25;;;21.05;100.00
27334;BME280;14817;57.104;-2.094;2023-08-01T09:03:33;98577.75;;;21.06;100.00
27334;BME280;14817;57.104;-2.094;2023-08-01T09:06:02;98582.09;;;20.96;100.00
27334;BME280;14817;57.104;-2.094;2023-08-01T09:08:31;98573.72;;;21.08;100.00
27334;BME280;14817;57.104;-2.094;2023-08-01T09:10:59;98600.13;;;21.28;100.00
27334;BME280;14817;57.104;-2.094;2023-08-01T09:13:25;98613.75;;;21.33;100.00
27334;BME280;14817;57.104;-2.094;2023-08-01T09:15:52;98565.88;;;21.48;100.00
27334;BME280;14817;57.104;-2.094;2023-08-01T09:18:19;98553.28;;;21.31;100.00
27334;BME280;14817;57.104;-2.094;2023-08-01T09:20:46;98525.28;;;21.46;100.00
27334;BME280;14817;57.104;-2.094;2023-08-01T09:23:14;98593.91;;;21.84;100.00
27334;BME280;14817;57.104;-2.094;2023-08-01T09:25:41;98586.84;;;21.73;100.00
27334;BME280;14817;57.104;-2.094;2023-08-01T09:28:20;98605.09;;;21.57;100.00
27334;BME280;14817;57.104;-2.094;2023-08-01T09:30:48;98594.19;;;21.41;100.00
27334;BME280;14817;57.104;-2.094;2023-08-01T09:33:15;98619.66;;;20.94;100.00
27334;BME280;14817;57.104;-2.094;2023-08-01T09:35:42;98625.81;;;21.68;100.00
27334;BME280;14817;57.104;-2.094;2023-08-01T09:38:13;98639.69;;;21.56;100.00
27334;BME280;14817;57.104;-2.094;2023-08-01T09:40:43;98660.13;;;21.54;100.00
27334;BME280;14817;57.104;-2.094;2023-08-01T09:43:11;98654.97;;;21.57;100.00
27334;BME280;14817;57.104;-2.094;2023-08-01T09:45:48;98652.47;;;21.46;100.00
27334;BME280;14817;57.104;-2.094;2023-08-01T09:48:25;98654.69;;;21.49;100.00
27334;BME280;14817;57.104;-2.094;2023-08-01T09:53:33;98672.13;;;21.99;100.00
27334;BME280;14817;57.104;-2.094;2023-08-01T09:56:01;98682.75;;;21.95;100.00
27334;BME280;14817;57.104;-2.094;2023-08-01T09:58:34;98704.06;;;22.34;100.00
27334;BME280;14817;57.104;-2.094;2023-08-01T10:01:01;98713.44;;;21.34;100.00
27334;BME280;14817;57.104;-2.094;2023-08-01T10:03:28;98738.94;;;22.17;100.00
27334;BME280;14817;57.104;-2.094;2023-08-01T10:05:55;98730.72;;;21.71;100.00
27334;BME280;14817;57.104;-2.094;2023-08-01T10:08:22;98737.03;;;22.07;100.00
27334;BME280;14817;57.104;-2.094;2023-08-01T10:10:49;98747.38;;;22.05;100.00
27334;BME280;14817;57.104;-2.094;2023-08-01T10:13:17;98760.16;;;21.84;100.00
27334;BME280;14817;57.104;-2.094;2023-08-01T10:15:47;98786.72;;;22.30;100.00
27334;BME280;14817;57.104;-2.094;2023-08-01T10:18:13;98799.53;;;22.60;100.00
27334;BME280;14817;57.104;-2.094;2023-08-01T10:20:41;98794.88;;;22.40;100.00
27334;BME280;14817;57.104;-2.094;2023-08-01T10:23:08;98783.97;;;22.40;100.00
27334;BME280;14817;57.104;-2.094;2023-08-01T10:25:36;98819.91;;;22.11;100.00
27334;BME280;14817;57.104;-2.094;2023-08-01T10:28:04;98819.94;;;22.32;100.00
27334;BME280;14817;57.104;-2.094;2023-08-01T10:30:31;98806.88;;;22.39;100.00
27334;BME280;14817;57.104;-2.094;2023-08-01T10:32:59;98824.31;;;22.22;100.00
27334;BME280;14817;57.104;-2.094;2023-08-01T10:35:35;98841.69;;;21.96;100.00
27334;BME280;14817;57.104;-2.094;2023-08-01T10:38:06;98826.84;;;21.56;100.00
27334;BME280;14817;57.104;-2.094;2023-08-01T10:40:36;98844.50;;;21.43;100.00
27334;BME280;14817;57.104;-2.094;2023-08-01T10:43:03;98845.66;;;21.57;100.00
27334;BME280;14817;57.104;-2.094;2023-08-01T10:45:31;98833.34;;;21.55;100.00
27334;BME280;14817;57.104;-2.094;2023-08-01T10:48:07;98847.63;;;21.77;100.00
27334;BME280;14817;57.104;-2.094;2023-08-01T10:50:35;98839.50;;;21.88;100.00
27334;BME280;14817;57.104;-2.094;2023-08-01T10:53:02;98845.91;;;21.51;100.00
27334;BME280;14817;57.104;-2.094;2023-08-01T10:55:38;98857.97;;;21.70;100.00
27334;BME280;14817;57.104;-2.094;2023-08-01T10:58:05;98847.78;;;21.50;100.00
27334;BME280;14817;57.104;-2.094;2023-08-01T11:00:31;98860.72;;;20.85;100.00
27334;BME280;14817;57.104;-2.094;2023-08-01T11:02:58;98853.59;;;21.21;100.00
27334;BME280;14817;57.104;-2.094;2023-08-01T11:05:25;98853.81;;;20.45;100.00
27334;BME280;14817;57.104;-2.094;2023-08-01T11:07:56;98844.47;;;20.63;100.00
27334;BME280;14817;57.104;-2.094;2023-08-01T11:10:24;98854.50;;;20.95;100.00
27334;BME280;14817;57.104;-2.094;2023-08-01T11:12:51;98854.03;;;21.03;100.00
27334;BME280;14817;57.104;-2.094;2023-08-01T11:15:19;98869.91;;;20.79;100.00
27334;BME280;14817;57.104;-2.094;2023-08-01T11:17:47;98860.75;;;20.58;100.00
27334;BME280;14817;57.104;-2.094;2023-08-01T11:20:14;98861.66;;;20.69;100.00
27334;BME280;14817;57.104;-2.094;2023-08-01T11:22:55;98858.72;;;20.48;100.00
27334;BME280;14817;57.104;-2.094;2023-08-01T11:25:44;98863.81;;;20.39;100.00
27334;BME280;14817;57.104;-2.094;2023-08-01T11:28:11;98862.06;;;20.01;100.00
27334;BME280;14817;57.104;-2.094;2023-08-01T11:30:38;98862.09;;;20.28;100.00
27334;BME280;14817;57.104;-2.094;2023-08-01T11:33:21;98854.72;;;20.56;100.00
27334;BME280;14817;57.104;-2.094;2023-08-01T11:38:20;98866.75;;;20.06;100.00
27334;BME280;14817;57.104;-2.094;2023-08-01T11:40:48;98874.91;;;19.84;100.00
27334;BME280;14817;57.104;-2.094;2023-08-01T11:43:16;98875.00;;;19.89;100.00
27334;BME280;14817;57.104;-2.094;2023-08-01T11:45:52;98872.50;;;19.26;100.00
27334;BME280;14817;57.104;-2.094;2023-08-01T11:48:21;98871.78;;;19.53;100.00
27334;BME280;14817;57.104;-2.094;2023-08-01T11:50:48;98861.63;;;19.65;100.00
27334;BME280;14817;57.104;-2.094;2023-08-01T11:53:19;98888.31;;;19.29;100.00
27334;BME280;14817;57.104;-2.094;2023-08-01T11:55:45;98876.94;;;19.32;100.00
27334;BME280;14817;57.104;-2.094;2023-08-01T11:58:12;98882.94;;;19.34;100.00
27334;BME280;14817;57.104;-2.094;2023-08-01T12:00:40;98868.06;;;19.20;100.00
27334;BME280;14817;57.104;-2.094;2023-08-01T12:03:09;98870.50;;;19.38;100.00
27334;BME280;14817;57.104;-2.094;2023-08-01T12:05:41;98871.44;;;19.27;100.00
27334;BME280;14817;57.104;-2.094;2023-08-01T12:08:12;98863.19;;;19.39;100.00
27334;BME280;14817;57.104;-2.094;2023-08-01T12:10:43;98867.16;;;19.31;100.00
27334;BME280;14817;57.104;-2.094;2023-08-01T12:13:20;98863.22;;;19.22;100.00
27334;BME280;14817;57.104;-2.094;2023-08-01T12:15:48;98860.59;;;19.27;100.00
27334;BME280;14817;57.104;-2.094;2023-08-01T12:18:22;98870.31;;;19.06;100.00
27334;BME280;14817;57.104;-2.094;2023-08-01T12:21:09;98878.47;;;18.89;100.00
27334;BME280;14817;57.104;-2.094;2023-08-01T12:23:35;98870.47;;;18.66;100.00
27334;BME280;14817;57.104;-2.094;2023-08-01T12:26:02;98864.03;;;18.38;100.00
27334;BME280;14817;57.104;-2.094;2023-08-01T12:28:29;98860.94;;;18.46;100.00
27334;BME280;14817;57.104;-2.094;2023-08-01T12:30:56;98854.75;;;18.34;100.00
27334;BME280;14817;57.104;-2.094;2023-08-01T12:33:25;98852.75;;;18.12;100.00
27334;BME280;14817;57.104;-2.094;2023-08-01T12:35:53;98840.78;;;18.25;100.00
27334;BME280;14817;57.104;-2.094;2023-08-01T12:38:20;98854.78;;;18.05;100.00
27334;BME280;14817;57.104;-2.094;2023-08-01T12:40:47;98850.66;;;18.48;100.00
27334;BME280;14817;57.104;-2.094;2023-08-01T12:43:14;98839.22;;;18.29;100.00
27334;BME280;14817;57.104;-2.094;2023-08-01T12:45:43;98837.00;;;18.26;100.00
27334;BME280;14817;57.104;-2.094;2023-08-01T12:48:10;98840.97;;;18.35;100.00